createdAt,value
2018-08-11T08:14:23.626Z,3.60
2018-08-11T08:16:52.213Z,2.70
2018-08-11T08:19:20.836Z,3.23
2018-08-11T08:21:49.424Z,2.93
2018-08-11T08:24:17.977Z,2.43
2018-08-11T08:26:46.547Z,2.20
2018-08-11T08:29:15.271Z,2.60
2018-08-11T08:31:43.845Z,2.60
2018-08-11T08:34:13.237Z,2.90
2018-08-11T08:36:41.822Z,2.67
2018-08-11T08:39:12.680Z,2.03
2018-08-11T08:41:41.817Z,2.50
2018-08-11T08:44:10.364Z,2.07
2018-08-11T08:46:38.907Z,2.63
2018-08-11T08:49:07.500Z,2.60
2018-08-11T08:51:37.148Z,2.50
2018-08-11T08:54:05.844Z,2.63
2018-08-11T08:56:34.403Z,2.83
2018-08-11T08:59:02.995Z,2.47
2018-08-11T09:01:31.528Z,2.73
2018-08-11T09:04:00.163Z,3.30
2018-08-11T09:06:28.787Z,3.43
2018-08-11T09:08:57.360Z,3.20
2018-08-11T09:11:26.066Z,4.70
2018-08-11T09:13:57.590Z,5.40
2018-08-11T09:16:26.332Z,5.70
2018-08-11T09:18:54.894Z,4.43
2018-08-11T09:21:23.437Z,4.87
2018-08-11T09:23:52.008Z,5.20
2018-08-11T09:26:20.590Z,5.60
2018-08-11T09:28:49.181Z,5.20
2018-08-11T09:31:17.779Z,6.03
2018-08-11T09:33:46.595Z,6.53
2018-08-11T09:36:16.176Z,6.03
2018-08-11T09:38:44.744Z,5.90
2018-08-11T09:41:13.468Z,7.10
2018-08-11T09:43:42.177Z,7.90
2018-08-11T09:46:10.724Z,7.07
2018-08-11T09:48:39.517Z,6.40
2018-08-11T09:51:08.413Z,7.90
2018-08-11T09:53:37.975Z,9.97
2018-08-11T09:56:06.716Z,9.03
2018-08-11T09:58:35.288Z,8.53
2018-08-11T10:01:09.028Z,9.20
2018-08-11T10:03:37.652Z,7.53
2018-08-11T10:06:06.549Z,8.37
2018-08-11T10:08:35.230Z,7.57
2018-08-11T10:11:03.842Z,8.60
2018-08-11T10:13:32.437Z,9.63
2018-08-11T10:16:01.203Z,7.00
2018-08-11T10:18:29.935Z,8.50
2018-08-11T10:20:58.516Z,7.90
2018-08-11T10:23:27.524Z,8.63
2018-08-11T10:26:24.809Z,7.33
2018-08-11T10:28:53.436Z,7.70
2018-08-11T10:31:22.310Z,6.33
2018-08-11T10:33:50.910Z,6.83
2018-08-11T10:36:19.452Z,8.20
2018-08-11T10:38:48.011Z,6.17
2018-08-11T10:41:16.875Z,7.47
2018-08-11T10:43:45.437Z,6.80
2018-08-11T10:46:13.991Z,6.10
2018-08-11T10:48:42.884Z,5.70
2018-08-11T10:51:11.515Z,5.40
2018-08-11T10:53:40.092Z,4.90
2018-08-11T10:56:08.924Z,5.10
2018-08-11T10:58:37.666Z,5.40
2018-08-11T11:01:06.225Z,4.40
2018-08-11T11:03:34.767Z,4.03
2018-08-11T11:06:03.674Z,3.97
2018-08-11T11:08:32.404Z,4.27
2018-08-11T11:11:00.935Z,4.50
2018-08-11T11:13:29.858Z,4.60
2018-08-11T11:15:58.415Z,3.40
2018-08-11T11:18:27.011Z,4.17
2018-08-11T11:20:55.581Z,3.23
2018-08-11T11:23:24.136Z,3.30
2018-08-11T11:25:52.739Z,3.10
2018-08-11T11:28:21.499Z,2.63
2018-08-11T11:30:50.031Z,3.13
2018-08-11T11:33:18.597Z,3.37
2018-08-11T11:35:47.267Z,3.67
2018-08-11T11:38:16.076Z,3.00
2018-08-11T11:40:44.760Z,3.80
2018-08-11T11:43:13.921Z,3.93
2018-08-11T11:45:42.641Z,4.40
2018-08-11T11:48:12.359Z,3.13
2018-08-11T11:50:40.953Z,3.97
2018-08-11T11:53:09.619Z,4.40
2018-08-11T11:55:38.505Z,4.20
2018-08-11T11:58:07.043Z,4.20
2018-08-11T12:00:36.568Z,3.47
2018-08-11T12:03:05.219Z,4.30
2018-08-11T12:05:33.760Z,3.17
2018-08-11T12:08:03.145Z,3.63
2018-08-11T12:10:32.119Z,3.40
2018-08-11T12:13:00.916Z,3.63
2018-08-11T12:15:29.544Z,3.40
2018-08-11T12:17:58.182Z,3.53
2018-08-11T12:20:26.753Z,2.17
2018-08-11T12:22:55.356Z,1.97
2018-08-11T12:25:24.016Z,2.50
2018-08-11T12:27:52.564Z,1.90
2018-08-11T12:30:21.219Z,1.80
2018-08-11T12:32:49.811Z,1.83
2018-08-11T12:35:18.424Z,1.40
2018-08-11T12:37:47.001Z,1.53
2018-08-11T12:40:15.616Z,1.70
2018-08-11T12:42:44.193Z,1.50
2018-08-11T12:45:13.557Z,1.40
2018-08-11T12:47:42.179Z,1.80
2018-08-11T12:50:10.803Z,1.40
2018-08-11T12:52:39.558Z,1.07
2018-08-11T12:55:08.182Z,1.43
2018-08-11T12:57:36.847Z,1.50
2018-08-11T13:00:06.455Z,1.10
2018-08-11T13:02:35.103Z,0.90
2018-08-11T13:05:04.168Z,1.00
2018-08-11T13:07:32.935Z,1.10
2018-08-11T13:10:01.556Z,1.73
2018-08-11T13:12:30.589Z,1.30
2018-08-11T13:14:59.210Z,2.00
2018-08-11T13:17:28.155Z,1.00
2018-08-11T13:19:56.720Z,1.60
2018-08-11T13:22:25.535Z,1.13
2018-08-11T13:24:54.097Z,1.10
2018-08-11T13:27:22.760Z,1.43
2018-08-11T13:29:51.432Z,1.23
2018-08-11T13:32:20.026Z,1.00
2018-08-11T13:34:49.554Z,1.23
2018-08-11T13:37:18.269Z,1.40
2018-08-11T13:39:48.576Z,1.10
2018-08-11T13:42:17.285Z,1.60
2018-08-11T13:44:46.021Z,1.20
2018-08-11T13:47:16.163Z,1.70
2018-08-11T13:49:44.811Z,1.00
2018-08-11T13:52:13.476Z,1.10
2018-08-11T13:54:42.170Z,1.30
2018-08-11T13:57:10.788Z,1.03
2018-08-11T13:59:39.386Z,1.00
2018-08-11T14:02:07.998Z,1.63
2018-08-11T14:04:36.851Z,1.40
2018-08-11T14:07:05.457Z,0.83
2018-08-11T14:09:34.888Z,1.17
2018-08-11T14:12:03.579Z,0.93
2018-08-11T14:14:33.156Z,1.30
2018-08-11T14:17:01.816Z,1.00
2018-08-11T14:19:30.447Z,1.70
2018-08-11T14:21:59.150Z,1.00
2018-08-11T14:24:28.022Z,1.50
2018-08-11T14:26:56.680Z,2.73
2018-08-11T14:32:16.604Z,3.00
2018-08-11T14:34:45.415Z,2.07
2018-08-11T14:37:13.984Z,2.40
2018-08-11T14:39:42.619Z,1.57
2018-08-11T14:42:11.346Z,1.37
2018-08-11T14:44:40.241Z,1.40
2018-08-11T14:47:08.896Z,1.37
2018-08-11T14:49:37.438Z,1.20
2018-08-11T14:52:06.284Z,1.20
2018-08-11T14:54:35.094Z,1.20
2018-08-11T14:57:03.672Z,1.20
2018-08-11T14:59:32.435Z,0.93
2018-08-11T15:02:01.487Z,1.60
2018-08-11T15:04:30.049Z,1.53
2018-08-11T15:06:58.612Z,2.00
2018-08-11T15:09:27.317Z,1.40
2018-08-11T15:11:55.857Z,1.40
2018-08-11T15:14:24.400Z,0.93
2018-08-11T15:16:53.000Z,1.30
2018-08-11T15:19:21.599Z,1.20
2018-08-11T15:21:50.236Z,1.60
2018-08-11T15:24:19.083Z,1.80
2018-08-11T15:26:47.660Z,1.20
2018-08-11T15:29:16.244Z,1.50
2018-08-11T15:31:45.199Z,1.60
2018-08-11T15:34:14.113Z,1.30
2018-08-11T15:36:42.673Z,1.30
2018-08-11T15:39:13.808Z,1.40
2018-08-11T15:41:42.712Z,1.37
2018-08-11T15:44:11.423Z,1.50
2018-08-11T15:46:39.980Z,1.50
2018-08-11T15:49:08.754Z,1.50
2018-08-11T15:51:37.356Z,1.60
2018-08-11T15:54:07.723Z,1.43
2018-08-11T15:56:36.384Z,1.20
2018-08-11T15:59:05.226Z,1.73
2018-08-11T16:01:33.880Z,1.20
2018-08-11T16:04:02.444Z,1.50
2018-08-11T16:06:32.175Z,1.30
2018-08-11T16:09:00.886Z,1.50
2018-08-11T16:11:29.536Z,1.10
2018-08-11T16:13:58.208Z,1.30
2018-08-11T16:16:26.903Z,1.30
2018-08-11T16:21:58.304Z,1.23
2018-08-11T16:24:27.042Z,2.20
2018-08-11T16:26:55.736Z,1.20
2018-08-11T16:29:30.537Z,1.93
2018-08-11T16:32:07.479Z,1.20
2018-08-11T16:34:36.097Z,1.40
2018-08-11T16:37:04.660Z,1.20
2018-08-11T16:39:33.349Z,1.27
2018-08-11T16:42:01.931Z,1.47
2018-08-11T16:44:30.538Z,1.53
2018-08-11T16:46:59.076Z,1.90
2018-08-11T16:49:27.659Z,1.50
2018-08-11T16:51:56.232Z,1.20
2018-08-11T16:54:24.808Z,1.43
2018-08-11T16:56:53.547Z,1.67
2018-08-11T16:59:22.425Z,1.90
2018-08-11T17:01:50.979Z,2.10
2018-08-11T17:04:19.572Z,2.00
2018-08-11T17:06:48.189Z,4.50
2018-08-11T17:09:17.777Z,3.50
2018-08-11T17:11:46.607Z,3.87
2018-08-11T17:14:15.208Z,2.30
2018-08-11T17:16:43.818Z,2.03
2018-08-11T17:19:12.507Z,3.23
2018-08-11T17:21:41.058Z,3.20
2018-08-11T17:24:09.664Z,2.50
2018-08-11T17:26:38.199Z,2.40
2018-08-11T17:29:07.028Z,6.50
2018-08-11T17:31:35.575Z,2.10
2018-08-11T17:34:04.170Z,1.83
2018-08-11T17:36:32.812Z,3.00
2018-08-11T17:39:01.388Z,3.53
2018-08-11T17:41:29.953Z,3.40
2018-08-11T17:43:58.606Z,3.20
2018-08-11T17:46:27.180Z,8.47
2018-08-11T17:48:55.792Z,3.73
2018-08-11T17:51:24.625Z,2.73
2018-08-11T17:53:53.179Z,2.50
2018-08-11T17:56:21.756Z,2.10
2018-08-11T17:58:50.409Z,1.63
2018-08-11T18:01:18.958Z,1.83
2018-08-11T18:03:47.593Z,1.60
2018-08-11T18:06:16.179Z,2.20
2018-08-11T18:08:44.842Z,2.30
2018-08-11T18:11:13.498Z,2.00
2018-08-11T18:13:42.041Z,2.20
2018-08-11T18:16:10.613Z,1.60
2018-08-11T18:18:39.316Z,1.77
2018-08-11T18:21:07.871Z,2.00
2018-08-11T18:23:36.480Z,2.00
2018-08-11T18:26:05.714Z,2.13
2018-08-11T18:28:34.488Z,3.30
2018-08-11T18:31:03.744Z,2.10
2018-08-11T18:33:32.635Z,2.07
2018-08-11T18:36:01.387Z,2.07
2018-08-11T18:38:30.018Z,2.40
2018-08-11T18:40:58.584Z,2.43
2018-08-11T18:43:27.259Z,2.60
2018-08-11T18:45:56.173Z,2.57
2018-08-11T18:48:24.756Z,2.43
2018-08-11T18:50:53.800Z,2.50
2018-08-11T18:53:22.596Z,2.70
2018-08-11T18:55:51.236Z,3.07
2018-08-11T18:58:19.960Z,2.67
2018-08-11T19:00:59.688Z,2.70
2018-08-11T19:03:28.983Z,2.70
2018-08-11T19:05:57.646Z,2.40
2018-08-11T19:08:30.520Z,2.70
2018-08-11T19:11:03.877Z,1.70
2018-08-11T19:13:32.501Z,2.90
2018-08-11T19:16:01.168Z,2.73
2018-08-11T19:18:29.723Z,2.67
2018-08-11T19:20:58.286Z,2.40
2018-08-11T19:23:26.878Z,2.93
2018-08-11T19:25:55.495Z,2.10
2018-08-11T19:28:24.409Z,1.90
2018-08-11T19:30:52.989Z,3.20
2018-08-11T19:33:21.555Z,2.97
2018-08-11T19:35:50.476Z,2.93
2018-08-11T19:38:19.071Z,2.17
2018-08-11T19:40:48.719Z,2.50
2018-08-11T19:43:18.198Z,2.90
2018-08-11T19:45:46.760Z,2.70
2018-08-11T19:48:15.364Z,2.77
2018-08-11T19:50:45.132Z,3.00
2018-08-11T19:53:13.700Z,3.10
2018-08-11T19:55:42.328Z,3.07
2018-08-11T19:58:10.936Z,3.80
2018-08-11T20:00:39.521Z,4.70
2018-08-11T20:03:08.132Z,6.30
2018-08-11T20:05:36.755Z,4.60
2018-08-11T20:08:05.343Z,4.50
2018-08-11T20:10:34.109Z,6.50
2018-08-11T20:13:03.292Z,3.43
2018-08-11T20:15:31.872Z,3.50
2018-08-11T20:18:00.527Z,3.60
2018-08-11T20:20:29.228Z,3.20
2018-08-11T20:22:57.786Z,3.20
2018-08-11T20:25:26.455Z,4.00
2018-08-11T20:27:54.968Z,4.10
2018-08-11T20:30:23.632Z,3.93
2018-08-11T20:32:52.247Z,4.10
2018-08-11T20:35:20.898Z,2.80
2018-08-11T20:37:49.679Z,3.20
2018-08-11T20:40:18.308Z,3.03
2018-08-11T20:42:46.937Z,3.90
2018-08-11T20:45:15.536Z,4.23
2018-08-11T20:47:44.135Z,5.20
2018-08-11T20:50:12.716Z,3.50
2018-08-11T20:52:41.427Z,3.40
2018-08-11T20:55:11.460Z,2.93
2018-08-11T20:57:40.280Z,7.60
2018-08-11T21:00:11.183Z,5.73
2018-08-11T21:02:39.761Z,4.23
2018-08-11T21:05:10.849Z,4.97
2018-08-11T21:07:40.149Z,25.03
2018-08-11T21:10:11.467Z,43.80
2018-08-11T21:12:40.571Z,34.57
2018-08-11T21:15:09.938Z,12.17
2018-08-11T21:17:39.295Z,10.50
2018-08-11T21:20:10.427Z,5.60
2018-08-11T21:22:39.059Z,39.00
2018-08-11T21:25:08.704Z,25.83
2018-08-11T21:27:37.688Z,31.83
2018-08-11T21:30:11.528Z,41.63
2018-08-11T21:32:40.183Z,43.93
2018-08-11T21:35:09.551Z,13.63
2018-08-11T21:37:39.031Z,10.20
2018-08-11T21:40:11.160Z,6.17
2018-08-11T21:42:40.118Z,5.53
2018-08-11T21:45:09.440Z,7.40
2018-08-11T21:47:38.525Z,5.10
2018-08-11T21:50:07.743Z,6.43
2018-08-11T21:52:36.691Z,3.43
2018-08-11T21:55:05.924Z,2.07
2018-08-11T21:57:35.119Z,2.93
2018-08-11T22:00:03.805Z,2.57
2018-08-11T22:02:32.439Z,3.07
2018-08-11T22:05:01.088Z,3.43
2018-08-11T22:07:29.843Z,5.57
2018-08-11T22:09:58.504Z,5.20
2018-08-11T22:12:27.249Z,5.10
2018-08-11T22:14:55.823Z,4.97
2018-08-11T22:20:56.281Z,3.07
2018-08-11T22:23:24.928Z,4.60
2018-08-11T22:25:53.492Z,4.37
2018-08-11T22:28:22.087Z,4.13
2018-08-11T22:30:50.745Z,5.40
2018-08-11T22:33:19.389Z,4.00
2018-08-11T22:35:48.040Z,4.17
2018-08-11T22:38:16.871Z,3.80
2018-08-11T22:40:45.655Z,3.13
2018-08-11T22:43:14.519Z,2.97
2018-08-11T22:45:43.104Z,4.23
2018-08-11T22:48:11.717Z,3.83
2018-08-11T22:50:40.471Z,2.73
2018-08-11T22:53:09.115Z,3.33
2018-08-11T22:55:38.204Z,3.23
2018-08-11T22:58:06.963Z,2.97
2018-08-11T23:00:37.187Z,2.60
2018-08-11T23:03:06.178Z,2.73
2018-08-11T23:05:34.927Z,3.10
2018-08-11T23:08:03.616Z,3.10
2018-08-11T23:10:32.270Z,4.63
2018-08-11T23:13:01.031Z,3.77
2018-08-11T23:15:30.182Z,2.97
2018-08-11T23:18:00.215Z,2.33
2018-08-11T23:20:28.748Z,3.07
2018-08-11T23:22:57.327Z,2.80
2018-08-11T23:25:26.017Z,2.87
2018-08-11T23:27:54.591Z,3.07
2018-08-11T23:30:23.263Z,2.83
2018-08-11T23:32:51.810Z,2.57
2018-08-11T23:35:20.432Z,2.77
2018-08-11T23:38:00.866Z,2.93
2018-08-11T23:40:29.844Z,4.63
2018-08-11T23:42:59.023Z,4.83
2018-08-11T23:45:27.668Z,4.10
2018-08-11T23:47:56.323Z,2.63
2018-08-11T23:50:25.023Z,2.50
2018-08-11T23:52:54.517Z,2.80
2018-08-11T23:55:23.102Z,5.50
2018-08-11T23:57:52.835Z,10.10
